Time;durP1;ratioP1;P1;durP2;ratioP2;P2;SDS_P1;SDS_P2;PMS_P1;PMS_P2;Temp;Humidity;BMP_temperature;BMP_pressure;BME280_temperature;BME280_humidity;BME280_pressure;Samples;Min_cycle;Max_cycle;Signal;HPM_P1;HPM_P2
2020/12/02 00:00:23;;;;;;;11.55;9.77;;;11.30;72.60;;;;;;2071974;28;20028;-73
2020/12/02 00:01:31;;;;;;;12.85;10.25;;;11.30;72.50;;;;;;2072386;28;20866;-73
2020/12/02 00:02:38;;;;;;;11.85;9.45;;;11.30;72.70;;;;;;2080973;28;20794;-71
2020/12/02 00:03:41;;;;;;;12.55;10.02;;;11.30;72.80;;;;;;2081150;28;20071;-73
2020/12/02 00:04:42;;;;;;;14.73;10.73;;;11.30;72.80;;;;;;2079181;28;20036;-73
2020/12/02 00:05:48;;;;;;;14.55;10.45;;;11.30;72.90;;;;;;2079904;28;20122;-73
2020/12/02 00:06:50;;;;;;;13.32;10.32;;;11.30;73.00;;;;;;2080620;28;20123;-73
2020/12/02 00:07:59;;;;;;;13.15;9.82;;;11.30;73.10;;;;;;2080831;28;20024;-70
2020/12/02 00:09:16;;;;;;;11.85;9.95;;;11.30;73.00;;;;;;2076308;28;20092;-73
2020/12/02 00:10:17;;;;;;;12.90;9.90;;;11.30;73.50;;;;;;2079065;28;20047;-73
2020/12/02 00:11:18;;;;;;;13.57;10.38;;;11.30;72.70;;;;;;2081214;28;20128;-71
2020/12/02 00:12:18;;;;;;;12.70;10.00;;;11.30;72.70;;;;;;2081322;28;20102;-72
2020/12/02 00:13:26;;;;;;;12.65;10.20;;;11.30;72.80;;;;;;2078556;28;20057;-72
2020/12/02 00:14:30;;;;;;;11.55;10.00;;;11.30;72.80;;;;;;2071389;28;20152;-73
2020/12/02 00:15:30;;;;;;;13.63;10.70;;;11.30;72.80;;;;;;2072137;28;20863;-73
2020/12/02 00:16:32;;;;;;;11.75;9.63;;;11.30;73.00;;;;;;2079982;28;20025;-72
2020/12/02 00:17:33;;;;;;;12.00;10.73;;;11.30;73.00;;;;;;2079523;28;20047;-73
2020/12/02 00:18:35;;;;;;;11.73;9.68;;;11.30;73.00;;;;;;2081191;28;20025;-73
2020/12/02 00:19:35;;;;;;;12.13;8.60;;;11.30;72.80;;;;;;2070207;28;20049;-73
2020/12/02 00:20:36;;;;;;;12.10;9.60;;;11.30;72.90;;;;;;2078454;28;20117;-73
2020/12/02 00:21:37;;;;;;;13.50;10.07;;;11.30;72.60;;;;;;2080240;28;20519;-73
2020/12/02 00:22:37;;;;;;;13.20;11.02;;;11.30;72.60;;;;;;2088931;28;20098;-73
2020/12/02 00:23:38;;;;;;;12.40;9.93;;;11.30;72.70;;;;;;2086854;28;20033;-73
2020/12/02 00:24:38;;;;;;;12.07;10.13;;;11.30;72.80;;;;;;2079635;28;20057;-72
2020/12/02 00:25:39;;;;;;;11.32;10.00;;;11.30;72.80;;;;;;2079984;28;20095;-73
2020/12/02 00:26:39;;;;;;;13.48;10.23;;;11.30;72.90;;;;;;2080546;28;20056;-72
2020/12/02 00:27:40;;;;;;;12.25;10.13;;;11.30;72.90;;;;;;2076457;28;20029;-73
2020/12/02 00:28:41;;;;;;;14.38;11.18;;;11.30;73.00;;;;;;2078999;28;20099;-72
2020/12/02 00:29:44;;;;;;;12.65;10.40;;;11.30;73.00;;;;;;2078687;28;20040;-72
2020/12/02 00:30:44;;;;;;;12.48;10.50;;;11.30;73.00;;;;;;2079272;28;20091;-72
2020/12/02 00:31:45;;;;;;;14.48;10.35;;;11.40;73.00;;;;;;2080043;28;20045;-72
2020/12/02 00:32:47;;;;;;;12.63;10.23;;;11.30;72.80;;;;;;2079681;28;20123;-73
2020/12/02 00:33:48;;;;;;;13.45;10.50;;;11.30;72.70;;;;;;2079367;28;20446;-72
2020/12/02 00:34:49;;;;;;;14.00;10.88;;;11.30;72.80;;;;;;2079990;28;20113;-73
2020/12/02 00:35:51;;;;;;;13.93;10.48;;;11.40;72.70;;;;;;2096600;28;20107;-73
2020/12/02 00:36:51;;;;;;;13.02;10.13;;;11.40;72.70;;;;;;2096219;28;20097;-73
2020/12/02 00:37:52;;;;;;;14.50;11.38;;;11.40;72.80;;;;;;2078186;28;20097;-72
2020/12/02 00:38:53;;;;;;;14.60;10.45;;;11.40;72.80;;;;;;2077067;28;20040;-72
2020/12/02 00:39:54;;;;;;;13.57;10.40;;;11.40;72.80;;;;;;2080570;28;20033;-72
2020/12/02 00:40:54;;;;;;;13.95;10.50;;;11.40;72.70;;;;;;2078815;28;20467;-73
2020/12/02 00:41:55;;;;;;;13.45;10.48;;;11.40;72.60;;;;;;2079236;28;20771;-72
2020/12/02 00:42:56;;;;;;;12.45;10.70;;;11.40;72.50;;;;;;2078665;28;20047;-73
2020/12/02 00:43:56;;;;;;;12.45;10.25;;;11.40;72.50;;;;;;2080125;28;20033;-73
2020/12/02 00:44:57;;;;;;;13.07;10.20;;;11.40;72.60;;;;;;2079778;28;20037;-73
2020/12/02 00:46:00;;;;;;;13.35;10.65;;;11.40;72.50;;;;;;2079010;28;20442;-73
2020/12/02 00:47:02;;;;;;;13.50;10.05;;;11.40;72.60;;;;;;2080682;28;20448;-72
2020/12/02 00:48:04;;;;;;;14.48;11.57;;;11.40;72.60;;;;;;2079099;28;20052;-73
2020/12/02 00:49:05;;;;;;;14.20;10.95;;;11.40;72.70;;;;;;2077304;28;20041;-73
2020/12/02 00:50:08;;;;;;;15.88;12.13;;;11.40;72.80;;;;;;2080305;28;20376;-74
2020/12/02 00:51:09;;;;;;;16.35;11.98;;;11.40;72.90;;;;;;2079039;28;20036;-73
2020/12/02 00:52:10;;;;;;;20.83;12.30;;;11.40;72.90;;;;;;2078036;28;20045;-73
2020/12/02 00:53:14;;;;;;;14.40;11.60;;;11.40;72.70;;;;;;2079339;28;20476;-72
2020/12/02 00:54:15;;;;;;;14.63;11.77;;;11.40;72.60;;;;;;2081169;28;20032;-72
2020/12/02 00:55:15;;;;;;;16.08;12.75;;;11.40;72.50;;;;;;2079165;28;20651;-73
2020/12/02 00:56:19;;;;;;;12.40;10.07;;;11.40;72.50;;;;;;2080319;28;20576;-73
2020/12/02 00:57:24;;;;;;;15.15;11.57;;;11.40;72.30;;;;;;2080181;28;20074;-72
2020/12/02 00:58:46;;;;;;;17.10;11.57;;;11.40;72.40;;;;;;2079473;28;20013;-73
2020/12/02 00:59:54;;;;;;;15.13;11.52;;;11.40;72.40;;;;;;2077698;28;20034;-72
2020/12/02 01:00:56;;;;;;;13.93;11.10;;;11.40;72.30;;;;;;2077323;28;20036;-73
2020/12/02 01:01:59;;;;;;;15.55;12.02;;;11.40;72.40;;;;;;2080010;28;20371;-73
2020/12/02 01:03:10;;;;;;;15.85;11.20;;;11.40;72.40;;;;;;2080069;28;20058;-72
2020/12/02 01:04:17;;;;;;;16.00;11.25;;;11.40;72.50;;;;;;2079805;28;20039;-73
2020/12/02 01:05:19;;;;;;;14.63;11.10;;;11.40;72.50;;;;;;2078794;28;21434;-72
2020/12/02 01:06:20;;;;;;;15.10;11.80;;;11.40;72.50;;;;;;2080518;28;20049;-72
2020/12/02 01:07:20;;;;;;;16.17;12.15;;;11.40;72.40;;;;;;2080136;28;20017;-73
2020/12/02 01:08:35;;;;;;;15.68;12.07;;;11.40;72.50;;;;;;2078910;28;20116;-72
2020/12/02 01:09:36;;;;;;;15.35;11.23;;;11.40;72.70;;;;;;2075853;28;20052;-72
2020/12/02 01:10:37;;;;;;;17.15;12.00;;;11.40;72.70;;;;;;2079949;28;20044;-73
2020/12/02 01:11:38;;;;;;;15.73;11.70;;;11.40;72.70;;;;;;2080858;28;20075;-73
2020/12/02 01:12:44;;;;;;;16.67;12.40;;;11.40;72.70;;;;;;2078786;28;20051;-72
2020/12/02 01:13:46;;;;;;;15.68;11.82;;;11.40;73.00;;;;;;2079123;28;20097;-73
2020/12/02 01:14:48;;;;;;;17.38;12.27;;;11.40;72.70;;;;;;2080365;28;20471;-73
2020/12/02 01:15:49;;;;;;;15.90;12.30;;;11.40;72.70;;;;;;2078958;28;20038;-72
2020/12/02 01:16:52;;;;;;;17.17;12.55;;;11.40;72.50;;;;;;2094200;28;20047;-73
2020/12/02 01:18:17;;;;;;;16.40;12.23;;;11.40;72.50;;;;;;2095548;28;20044;-72
2020/12/02 01:19:23;;;;;;;14.85;11.27;;;11.40;72.50;;;;;;2077633;28;20039;-72
2020/12/02 01:20:23;;;;;;;16.20;11.35;;;11.40;72.50;;;;;;2079972;28;20148;-72
2020/12/02 01:21:35;;;;;;;15.02;11.80;;;11.40;72.50;;;;;;2078409;28;20025;-74
2020/12/02 01:22:45;;;;;;;15.20;11.38;;;11.40;72.70;;;;;;2078243;28;20032;-73
2020/12/02 01:23:50;;;;;;;15.50;11.43;;;11.40;72.60;;;;;;2079470;28;20028;-72
2020/12/02 01:25:13;;;;;;;18.42;12.45;;;11.40;72.50;;;;;;2079636;28;20037;-72
2020/12/02 01:26:17;;;;;;;16.73;12.57;;;11.40;72.30;;;;;;2080220;28;20108;-72
2020/12/02 01:27:35;;;;;;;15.73;11.55;;;11.40;72.30;;;;;;2079038;28;20512;-72
2020/12/02 01:28:37;;;;;;;15.90;11.75;;;11.40;72.50;;;;;;2076505;28;20045;-72
2020/12/02 01:29:39;;;;;;;15.60;12.05;;;11.40;72.50;;;;;;2077053;28;20036;-73
2020/12/02 01:30:42;;;;;;;16.35;12.23;;;11.40;72.60;;;;;;2079570;28;20537;-73
2020/12/02 01:31:58;;;;;;;16.55;12.20;;;11.40;72.70;;;;;;2078765;28;20048;-73
2020/12/02 01:32:59;;;;;;;14.40;11.57;;;11.40;72.80;;;;;;2077703;28;20139;-72
2020/12/02 01:33:59;;;;;;;17.13;12.23;;;11.40;72.80;;;;;;2079317;28;20036;-73
2020/12/02 01:35:00;;;;;;;16.35;12.07;;;11.40;72.70;;;;;;2079348;28;20411;-73
2020/12/02 01:36:00;;;;;;;16.67;12.82;;;11.40;72.50;;;;;;2078303;28;20301;-72
2020/12/02 01:37:27;;;;;;;15.48;12.50;;;11.40;72.30;;;;;;2078118;28;20457;-73
2020/12/02 01:38:32;;;;;;;15.77;11.85;;;11.40;72.70;;;;;;2069867;28;20542;-72
2020/12/02 01:39:41;;;;;;;15.85;11.63;;;11.40;72.60;;;;;;2076374;28;20041;-72
2020/12/02 01:40:41;;;;;;;14.90;12.23;;;11.40;72.60;;;;;;2079989;28;20025;-73
2020/12/02 01:41:42;;;;;;;17.23;11.95;;;11.40;72.50;;;;;;2078904;28;20040;-72
2020/12/02 01:42:47;;;;;;;15.07;11.65;;;11.30;72.50;;;;;;2079153;28;20411;-73
2020/12/02 01:43:50;;;;;;;18.27;12.77;;;11.40;72.50;;;;;;2079695;28;20122;-72
2020/12/02 01:44:51;;;;;;;16.85;12.43;;;11.30;72.40;;;;;;2081009;28;20033;-73
2020/12/02 01:45:55;;;;;;;17.42;12.10;;;11.40;72.50;;;;;;2078597;28;20056;-73
2020/12/02 01:47:01;;;;;;;17.65;12.98;;;11.40;72.30;;;;;;2083812;28;20360;-73
2020/12/02 01:48:24;;;;;;;17.95;12.40;;;11.40;72.30;;;;;;2083675;28;20037;-73
2020/12/02 01:49:34;;;;;;;15.88;12.30;;;11.40;72.50;;;;;;2082378;28;20025;-72
2020/12/02 01:50:38;;;;;;;15.90;12.02;;;11.40;72.50;;;;;;2083324;28;20041;-73
2020/12/02 01:52:07;;;;;;;18.48;12.38;;;11.30;72.30;;;;;;2084504;28;20040;-73
2020/12/02 01:53:38;;;;;;;14.80;11.15;;;11.30;72.50;;;;;;2082869;28;20033;-72
2020/12/02 01:54:45;;;;;;;16.17;11.27;;;11.30;72.40;;;;;;2085345;28;20056;-72
2020/12/02 01:55:55;;;;;;;18.92;12.57;;;11.30;72.30;;;;;;2084831;28;20613;-73
2020/12/02 01:57:14;;;;;;;;;;;11.30;72.50;;;;;;2084094;28;20136;-72
2020/12/02 01:58:26;;;;;;;13.13;10.23;;;11.30;72.50;;;;;;2083385;28;19962;-72
2020/12/02 02:00:01;;;;;;;14.77;10.88;;;11.30;72.30;;;;;;2084801;28;20041;-72
2020/12/02 02:01:15;;;;;;;13.30;9.88;;;11.30;72.20;;;;;;2082984;28;20017;-72
2020/12/02 02:02:39;;;;;;;16.27;11.77;;;11.30;72.10;;;;;;2084012;28;20024;-73
2020/12/02 02:03:40;;;;;;;16.13;11.85;;;11.30;72.00;;;;;;2083325;28;20472;-72
2020/12/02 02:05:09;;;;;;;16.73;12.32;;;11.30;72.10;;;;;;2083379;28;20030;-72
2020/12/02 02:06:16;;;;;;;16.83;11.82;;;11.30;72.30;;;;;;2083781;28;20033;-72
2020/12/02 02:07:23;;;;;;;16.13;11.80;;;11.30;72.30;;;;;;2091490;28;20020;-72
2020/12/02 02:08:29;;;;;;;16.08;12.18;;;11.30;72.30;;;;;;2092044;28;20093;-72
2020/12/02 02:09:30;;;;;;;17.45;12.70;;;11.30;72.10;;;;;;2084575;28;20463;-72
2020/12/02 02:10:35;;;;;;;17.45;12.98;;;11.30;72.10;;;;;;2083941;28;20216;-74
2020/12/02 02:11:45;;;;;;;19.20;12.98;;;11.30;72.30;;;;;;2083406;28;20060;-72
2020/12/02 02:12:55;;;;;;;20.40;13.23;;;11.20;72.30;;;;;;2074338;28;20041;-72
2020/12/02 02:14:37;;;;;;;15.38;12.07;;;11.30;72.30;;;;;;2079663;28;20036;-72
2020/12/02 02:15:56;;;;;;;14.82;10.77;;;11.30;72.30;;;;;;2078106;28;20154;-73
2020/12/02 02:16:56;;;;;;;15.23;11.93;;;11.30;72.20;;;;;;2079584;28;20126;-72
2020/12/02 02:18:00;;;;;;;16.52;12.38;;;11.30;72.20;;;;;;2080052;28;20254;-72
2020/12/02 02:19:01;;;;;;;17.98;12.18;;;11.20;72.40;;;;;;2077847;28;20614;-72
2020/12/02 02:20:03;;;;;;;16.15;12.15;;;11.30;72.50;;;;;;2078101;28;20636;-72
2020/12/02 02:21:08;;;;;;;15.85;12.25;;;11.30;72.60;;;;;;2079502;28;20028;-73
2020/12/02 02:22:08;;;;;;;18.25;12.63;;;11.20;72.40;;;;;;2079864;28;20541;-73
2020/12/02 02:23:11;;;;;;;18.75;13.15;;;11.20;72.40;;;;;;2077593;28;20036;-72
2020/12/02 02:24:12;;;;;;;18.63;13.02;;;11.20;72.40;;;;;;2079590;28;20878;-73
2020/12/02 02:25:13;;;;;;;19.00;13.27;;;11.20;72.40;;;;;;2078880;28;20284;-72
2020/12/02 02:26:13;;;;;;;17.38;12.35;;;11.20;72.40;;;;;;2078528;28;20422;-72
2020/12/02 02:27:16;;;;;;;16.45;12.40;;;11.20;72.30;;;;;;2079360;28;20044;-72
2020/12/02 02:28:16;;;;;;;15.82;12.73;;;11.20;72.10;;;;;;2079832;28;20066;-72
2020/12/02 02:29:28;;;;;;;17.27;13.00;;;11.20;72.10;;;;;;2078316;28;20608;-73
2020/12/02 02:30:30;;;;;;;16.42;11.70;;;11.20;72.20;;;;;;2078382;28;20055;-73
2020/12/02 02:31:39;;;;;;;16.80;12.02;;;11.20;72.20;;;;;;2078825;28;20799;-72
2020/12/02 02:32:41;;;;;;;17.77;12.73;;;11.20;72.20;;;;;;2079117;28;20596;-73
2020/12/02 02:33:41;;;;;;;16.73;12.73;;;11.20;72.20;;;;;;2079748;28;20075;-73
2020/12/02 02:34:47;;;;;;;16.60;12.75;;;11.20;72.10;;;;;;2078162;28;20029;-73
2020/12/02 02:35:48;;;;;;;14.60;11.55;;;11.20;72.40;;;;;;2077451;28;20029;-72
2020/12/02 02:36:49;;;;;;;15.90;12.07;;;11.20;72.40;;;;;;2079354;28;20495;-72
2020/12/02 02:37:50;;;;;;;14.80;11.63;;;11.20;72.30;;;;;;2078330;28;20024;-72
2020/12/02 02:38:51;;;;;;;14.82;12.43;;;11.20;72.20;;;;;;2078172;28;20033;-72
2020/12/02 02:39:53;;;;;;;16.02;12.57;;;11.20;72.20;;;;;;2079540;28;20435;-73
2020/12/02 02:40:53;;;;;;;14.45;11.35;;;11.20;72.30;;;;;;2079402;28;20036;-72
2020/12/02 02:41:59;;;;;;;14.73;11.77;;;11.20;72.40;;;;;;2077896;28;20455;-72
2020/12/02 02:43:03;;;;;;;17.80;11.70;;;11.20;72.40;;;;;;2077520;28;20029;-73
2020/12/02 02:44:05;;;;;;;16.02;12.13;;;11.10;72.30;;;;;;2079887;28;20282;-73
2020/12/02 02:45:15;;;;;;;16.05;12.25;;;11.20;72.40;;;;;;2077426;28;20899;-72
2020/12/02 02:46:16;;;;;;;16.27;12.25;;;11.20;72.30;;;;;;2077911;28;20017;-72
2020/12/02 02:47:16;;;;;;;15.80;11.95;;;11.20;72.20;;;;;;2079597;28;20707;-72
2020/12/02 02:48:17;;;;;;;20.02;13.32;;;11.10;72.30;;;;;;2079734;28;20060;-72
2020/12/02 02:49:17;;;;;;;16.13;12.77;;;11.20;72.30;;;;;;2078056;28;20094;-73
2020/12/02 02:50:20;;;;;;;15.18;12.07;;;11.20;72.20;;;;;;2078693;28;20041;-73
2020/12/02 02:51:20;;;;;;;16.50;11.90;;;11.20;72.20;;;;;;2080102;28;20531;-72
2020/12/02 02:52:21;;;;;;;17.63;12.35;;;11.10;72.10;;;;;;2078479;28;20044;-73
2020/12/02 02:53:24;;;;;;;16.02;12.38;;;11.20;72.00;;;;;;2075354;28;20112;-72
2020/12/02 02:54:24;;;;;;;15.93;12.10;;;11.20;72.00;;;;;;2079207;28;20486;-73
2020/12/02 02:55:26;;;;;;;18.48;13.07;;;11.20;72.00;;;;;;2076751;28;20398;-72
2020/12/02 02:56:27;;;;;;;18.23;12.52;;;11.20;72.00;;;;;;2078013;28;20125;-72
2020/12/02 02:57:27;;;;;;;15.65;12.60;;;11.10;72.00;;;;;;2078430;28;20378;-72
2020/12/02 02:58:29;;;;;;;16.77;12.82;;;11.10;72.10;;;;;;2079318;28;20072;-73
2020/12/02 02:59:29;;;;;;;16.95;12.35;;;11.20;72.40;;;;;;2079015;28;20072;-72
2020/12/02 03:00:32;;;;;;;16.10;12.05;;;11.10;72.10;;;;;;2078811;28;20025;-72
2020/12/02 03:01:35;;;;;;;15.57;11.93;;;11.10;72.30;;;;;;2078756;28;20155;-73
2020/12/02 03:02:36;;;;;;;17.65;12.48;;;11.10;72.30;;;;;;2079602;28;20454;-73
2020/12/02 03:03:36;;;;;;;15.45;11.95;;;11.20;72.30;;;;;;2078006;28;20324;-72
2020/12/02 03:04:37;;;;;;;16.38;12.20;;;11.10;72.30;;;;;;2079356;28;20090;-73
2020/12/02 03:05:38;;;;;;;17.20;12.00;;;11.10;72.20;;;;;;2076888;28;20044;-72
2020/12/02 03:06:39;;;;;;;16.33;12.30;;;11.10;72.00;;;;;;2078122;28;20072;-73
2020/12/02 03:07:40;;;;;;;15.43;11.93;;;11.10;71.90;;;;;;2078203;28;20037;-73
2020/12/02 03:08:41;;;;;;;16.88;12.05;;;11.10;71.80;;;;;;2080339;28;20037;-72
2020/12/02 03:09:43;;;;;;;16.90;11.60;;;11.10;71.60;;;;;;2080828;28;20086;-73
2020/12/02 03:10:45;;;;;;;13.27;10.63;;;11.20;71.70;;;;;;2078723;28;20563;-73
2020/12/02 03:11:48;;;;;;;15.90;11.25;;;11.10;71.50;;;;;;2072843;28;20748;-72
2020/12/02 03:12:48;;;;;;;14.95;11.52;;;11.10;71.60;;;;;;2080444;28;20108;-72
2020/12/02 03:13:52;;;;;;;17.55;12.52;;;11.10;71.80;;;;;;2079357;28;20028;-73
2020/12/02 03:14:54;;;;;;;15.93;11.68;;;11.10;71.60;;;;;;2080243;28;20045;-70
2020/12/02 03:15:55;;;;;;;13.45;10.80;;;11.10;71.60;;;;;;2078933;28;20340;-73
2020/12/02 03:16:58;;;;;;;17.70;11.98;;;11.10;71.60;;;;;;2080826;28;20031;-72
2020/12/02 03:17:59;;;;;;;14.85;11.27;;;11.10;71.50;;;;;;2079599;28;20452;-73
2020/12/02 03:19:12;;;;;;;15.60;11.55;;;11.10;71.70;;;;;;2081339;28;20072;-73
2020/12/02 03:20:22;;;;;;;15.13;10.73;;;11.10;71.60;;;;;;2082298;28;20029;-72
2020/12/02 03:21:23;;;;;;;12.35;10.02;;;11.10;71.80;;;;;;2081712;28;20406;-73
2020/12/02 03:22:26;;;;;;;16.08;11.27;;;11.10;71.80;;;;;;2079749;28;20129;-73
2020/12/02 03:23:27;;;;;;;15.30;11.73;;;11.10;71.50;;;;;;2079994;28;20424;-72
2020/12/02 03:24:29;;;;;;;16.13;11.85;;;11.10;71.60;;;;;;2080681;28;20037;-72
2020/12/02 03:25:32;;;;;;;16.75;11.05;;;11.10;71.50;;;;;;2077264;28;20557;-73
2020/12/02 03:26:32;;;;;;;15.75;10.88;;;11.10;71.40;;;;;;2079891;28;20049;-73
2020/12/02 03:27:33;;;;;;;16.35;12.65;;;11.10;71.40;;;;;;2081104;28;20327;-73
2020/12/02 03:28:33;;;;;;;14.38;11.50;;;11.10;71.40;;;;;;2088096;28;20021;-72
2020/12/02 03:29:35;;;;;;;16.38;11.95;;;11.10;71.30;;;;;;2086692;28;20044;-73
2020/12/02 03:30:36;;;;;;;17.75;12.82;;;11.10;71.50;;;;;;2081931;28;21045;-72
2020/12/02 03:31:37;;;;;;;14.65;11.10;;;11.10;71.60;;;;;;2080233;28;20456;-72
2020/12/02 03:32:37;;;;;;;15.75;11.68;;;11.10;71.60;;;;;;2079064;28;20123;-72
2020/12/02 03:33:39;;;;;;;15.80;11.60;;;11.10;71.60;;;;;;2080716;28;20570;-73
2020/12/02 03:34:39;;;;;;;13.68;11.25;;;11.00;71.60;;;;;;2081944;28;20052;-73
2020/12/02 03:35:40;;;;;;;17.42;12.52;;;11.10;71.70;;;;;;2076950;28;20681;-73
2020/12/02 03:36:41;;;;;;;17.63;12.10;;;11.00;71.70;;;;;;2080104;28;20057;-72
2020/12/02 03:37:42;;;;;;;17.73;12.25;;;11.10;71.70;;;;;;2080845;28;20028;-73
2020/12/02 03:38:44;;;;;;;15.27;11.75;;;11.10;71.80;;;;;;2080429;28;20302;-72
2020/12/02 03:39:44;;;;;;;14.85;12.18;;;11.10;71.70;;;;;;2079363;28;20621;-72
2020/12/02 03:40:45;;;;;;;17.88;12.48;;;11.10;71.60;;;;;;2080580;28;20055;-72
2020/12/02 03:41:46;;;;;;;18.27;12.18;;;11.10;71.60;;;;;;2081159;28;20025;-73
2020/12/02 03:42:46;;;;;;;17.45;12.57;;;11.00;71.50;;;;;;2078948;28;20037;-72
2020/12/02 03:43:47;;;;;;;15.68;11.93;;;11.00;71.70;;;;;;2079955;28;20037;-72
2020/12/02 03:44:48;;;;;;;15.85;11.73;;;11.10;71.60;;;;;;2080777;28;20029;-72
2020/12/02 03:45:49;;;;;;;23.15;13.57;;;11.10;71.60;;;;;;2077089;28;20045;-72
2020/12/02 03:46:49;;;;;;;16.45;11.85;;;11.10;71.80;;;;;;2079106;28;20476;-73
2020/12/02 03:47:50;;;;;;;18.50;12.52;;;11.10;71.80;;;;;;2081428;28;20247;-72
2020/12/02 03:48:51;;;;;;;17.70;11.57;;;11.00;71.80;;;;;;2080555;28;20048;-72
2020/12/02 03:49:52;;;;;;;16.65;12.57;;;11.10;71.90;;;;;;2079401;28;20717;-72
2020/12/02 03:50:52;;;;;;;16.95;12.20;;;11.10;72.00;;;;;;2079093;28;20029;-72
2020/12/02 03:51:53;;;;;;;17.20;12.95;;;11.00;72.00;;;;;;2080676;28;20045;-72
2020/12/02 03:52:53;;;;;;;18.33;13.85;;;11.10;72.10;;;;;;2078873;28;20037;-72
2020/12/02 03:53:54;;;;;;;18.75;13.55;;;11.10;72.10;;;;;;2079234;28;20033;-72
2020/12/02 03:54:54;;;;;;;15.23;12.15;;;11.00;72.10;;;;;;2079666;28;20155;-72
2020/12/02 03:55:55;;;;;;;15.45;11.98;;;11.00;72.10;;;;;;2079295;28;20021;-72
2020/12/02 03:56:55;;;;;;;16.73;12.75;;;11.00;72.10;;;;;;2078792;28;20894;-72
2020/12/02 03:57:56;;;;;;;15.90;11.65;;;11.00;71.90;;;;;;2080236;28;20123;-72
2020/12/02 03:58:56;;;;;;;16.70;11.82;;;11.10;72.10;;;;;;2079782;28;20186;-73
2020/12/02 03:59:57;;;;;;;17.35;13.05;;;11.10;72.00;;;;;;2072037;28;20230;-72
2020/12/02 04:00:57;;;;;;;17.67;12.73;;;11.10;72.10;;;;;;2080184;28;20163;-72
2020/12/02 04:01:58;;;;;;;19.00;13.40;;;11.00;72.10;;;;;;2079838;28;20551;-72
2020/12/02 04:02:59;;;;;;;16.05;12.20;;;11.10;72.30;;;;;;2078227;28;20080;-72
2020/12/02 04:03:59;;;;;;;17.27;13.20;;;11.10;72.30;;;;;;2079953;28;20396;-73
2020/12/02 04:05:00;;;;;;;19.77;12.73;;;11.10;72.30;;;;;;2079526;28;20641;-72
2020/12/02 04:06:01;;;;;;;18.17;12.82;;;11.10;72.30;;;;;;2079099;28;20621;-72
2020/12/02 04:07:01;;;;;;;16.38;13.18;;;11.00;72.20;;;;;;2078578;28;20112;-72
2020/12/02 04:08:03;;;;;;;15.60;12.45;;;11.10;72.30;;;;;;2080190;28;20110;-73
2020/12/02 04:09:04;;;;;;;17.83;13.50;;;11.10;72.40;;;;;;2080410;28;20041;-72
2020/12/02 04:10:05;;;;;;;17.30;12.93;;;11.10;72.40;;;;;;2078888;28;20145;-72
2020/12/02 04:11:08;;;;;;;17.75;12.38;;;11.10;72.30;;;;;;2080178;28;20087;-72
2020/12/02 04:12:08;;;;;;;16.20;12.40;;;11.10;72.30;;;;;;2080862;28;20033;-72
2020/12/02 04:13:09;;;;;;;19.95;13.35;;;11.00;72.20;;;;;;2078889;28;20306;-72
2020/12/02 04:14:10;;;;;;;16.75;12.13;;;11.10;72.20;;;;;;2079311;28;20207;-73
2020/12/02 04:15:11;;;;;;;17.67;13.23;;;11.10;72.10;;;;;;2078271;28;20025;-73
2020/12/02 04:16:11;;;;;;;17.48;13.05;;;11.10;72.20;;;;;;2079425;28;20033;-72
2020/12/02 04:17:12;;;;;;;20.70;13.77;;;11.10;72.20;;;;;;2084403;28;20053;-72
2020/12/02 04:18:13;;;;;;;16.85;12.52;;;11.10;72.10;;;;;;2085985;28;20024;-73
2020/12/02 04:19:14;;;;;;;17.77;12.30;;;11.10;71.80;;;;;;2085312;28;20209;-74
2020/12/02 04:20:20;;;;;;;17.88;13.32;;;11.00;71.80;;;;;;2085100;28;20520;-73
2020/12/02 04:21:25;;;;;;;19.48;13.05;;;11.10;71.70;;;;;;2085432;28;20056;-72
2020/12/02 04:22:25;;;;;;;15.77;11.82;;;11.10;71.60;;;;;;2085051;28;20033;-72
2020/12/02 04:23:26;;;;;;;17.40;12.77;;;11.10;71.60;;;;;;2083422;28;20096;-72
2020/12/02 04:24:26;;;;;;;18.80;13.73;;;11.00;71.40;;;;;;2085055;28;20041;-73
2020/12/02 04:25:27;;;;;;;16.70;13.38;;;11.00;72.10;;;;;;2085480;28;20032;-72
2020/12/02 04:26:28;;;;;;;21.13;13.50;;;11.10;71.60;;;;;;2084787;28;20040;-73
2020/12/02 04:27:29;;;;;;;19.05;12.90;;;11.10;71.60;;;;;;2085288;28;20033;-72
2020/12/02 04:28:29;;;;;;;18.38;13.25;;;11.10;71.70;;;;;;2084987;28;20498;-73
2020/12/02 04:29:30;;;;;;;18.77;12.98;;;11.00;71.60;;;;;;2085094;28;20055;-72
2020/12/02 04:30:30;;;;;;;17.27;12.82;;;11.10;71.60;;;;;;2085103;28;20022;-73
2020/12/02 04:31:31;;;;;;;18.45;12.65;;;11.10;71.50;;;;;;2083361;28;20033;-72
2020/12/02 04:32:32;;;;;;;18.38;12.68;;;11.00;71.20;;;;;;2085123;28;20021;-73
2020/12/02 04:33:32;;;;;;;17.20;12.93;;;11.10;71.30;;;;;;2084251;28;20045;-71
2020/12/02 04:34:33;;;;;;;20.65;13.48;;;11.00;71.20;;;;;;2084895;28;20488;-72
2020/12/02 04:35:33;;;;;;;16.13;12.18;;;11.00;71.30;;;;;;2084972;28;20078;-71
2020/12/02 04:36:34;;;;;;;18.88;12.40;;;11.00;71.30;;;;;;2084889;28;20029;-71
2020/12/02 04:37:35;;;;;;;19.15;12.63;;;11.00;71.80;;;;;;2084168;28;20025;-72
2020/12/02 04:38:36;;;;;;;18.48;12.13;;;11.00;71.50;;;;;;2085517;28;20115;-71
2020/12/02 04:39:37;;;;;;;16.98;11.75;;;11.00;71.50;;;;;;2084512;28;20025;-71
2020/12/02 04:40:40;;;;;;;15.73;11.52;;;11.00;71.40;;;;;;2084721;28;20104;-71
2020/12/02 04:41:41;;;;;;;18.80;12.52;;;11.00;71.50;;;;;;2084580;28;20021;-71
2020/12/02 04:42:44;;;;;;;20.73;12.68;;;11.00;71.50;;;;;;2084672;28;20040;-72
2020/12/02 04:43:48;;;;;;;16.33;12.25;;;11.00;71.30;;;;;;2084235;28;20056;-72
2020/12/02 04:44:49;;;;;;;15.70;11.73;;;11.00;71.20;;;;;;2085121;28;20036;-71
2020/12/02 04:45:52;;;;;;;15.90;12.23;;;11.00;71.00;;;;;;2084423;28;20025;-71
2020/12/02 04:46:55;;;;;;;17.10;12.10;;;11.00;70.90;;;;;;2083491;28;20029;-71
2020/12/02 04:48:01;;;;;;;18.13;12.45;;;11.00;70.80;;;;;;2084356;28;20029;-71
2020/12/02 04:49:14;;;;;;;17.48;11.80;;;11.00;70.90;;;;;;2084482;28;20045;-71
2020/12/02 04:50:22;;;;;;;17.02;11.52;;;11.00;71.00;;;;;;2084752;28;20022;-71
2020/12/02 04:51:27;;;;;;;16.38;11.55;;;11.00;71.10;;;;;;2084601;28;20052;-71
2020/12/02 04:52:28;;;;;;;17.38;12.20;;;11.00;71.20;;;;;;2083519;28;20033;-71
2020/12/02 04:53:28;;;;;;;18.83;12.95;;;11.00;71.20;;;;;;2084070;28;20053;-71
2020/12/02 04:54:29;;;;;;;18.88;12.82;;;11.00;71.40;;;;;;2083789;28;20446;-72
2020/12/02 04:55:30;;;;;;;16.30;11.57;;;11.00;71.50;;;;;;2084319;28;20079;-72
2020/12/02 04:56:30;;;;;;;18.33;12.57;;;10.90;71.50;;;;;;2084874;28;20083;-72
2020/12/02 04:57:31;;;;;;;18.45;12.25;;;10.90;71.50;;;;;;2084922;28;20104;-71
2020/12/02 04:58:39;;;;;;;20.23;12.50;;;10.90;71.40;;;;;;2083949;28;20807;-72
2020/12/02 04:59:42;;;;;;;17.52;11.68;;;10.90;71.30;;;;;;2084311;28;20040;-72
2020/12/02 05:00:43;;;;;;;17.58;11.65;;;10.90;71.20;;;;;;2084967;28;20305;-72
2020/12/02 05:02:01;;;;;;;15.18;11.07;;;10.90;71.10;;;;;;2083384;28;20061;-73
2020/12/02 05:03:11;;;;;;;16.42;11.98;;;10.90;70.80;;;;;;2084045;28;20461;-73
2020/12/02 05:04:16;;;;;;;17.08;11.68;;;10.90;70.90;;;;;;2084594;28;20047;-72
2020/12/02 05:05:20;;;;;;;18.80;12.25;;;10.90;70.90;;;;;;2085077;28;20106;-73
2020/12/02 05:06:40;;;;;;;19.77;13.07;;;10.90;70.80;;;;;;2083648;28;20112;-72
2020/12/02 05:07:40;;;;;;;18.13;12.20;;;10.90;71.00;;;;;;2084257;28;20174;-72
2020/12/02 05:08:41;;;;;;;16.48;11.18;;;10.90;71.10;;;;;;2084564;28;20359;-73
2020/12/02 05:10:15;;;;;;;17.35;12.35;;;10.90;71.40;;;;;;2084201;28;20047;-72
2020/12/02 05:11:16;;;;;;;15.25;11.18;;;10.90;71.60;;;;;;2084343;28;20033;-72
2020/12/02 05:12:28;;;;;;;17.50;11.82;;;10.90;71.50;;;;;;2084493;28;20391;-72
2020/12/02 05:13:29;;;;;;;18.77;11.73;;;10.90;71.60;;;;;;2083570;28;20033;-72
2020/12/02 05:14:44;;;;;;;17.70;12.60;;;10.90;71.60;;;;;;2084779;28;20040;-72
2020/12/02 05:15:45;;;;;;;16.65;11.43;;;10.90;71.50;;;;;;2084235;28;20108;-73
2020/12/02 05:17:03;;;;;;;17.38;11.68;;;10.90;71.50;;;;;;2083801;28;20348;-72
2020/12/02 05:18:19;;;;;;;16.52;11.43;;;10.90;71.60;;;;;;2084081;28;20133;-72
2020/12/02 05:19:21;;;;;;;15.30;10.90;;;10.90;71.60;;;;;;2083990;28;20054;-72
2020/12/02 05:20:22;;;;;;;15.00;10.75;;;10.90;71.70;;;;;;2084548;28;20456;-72
2020/12/02 05:21:23;;;;;;;16.00;12.00;;;10.90;71.70;;;;;;2084644;28;20364;-72
2020/12/02 05:22:24;;;;;;;16.95;11.40;;;10.90;71.70;;;;;;2083919;28;20032;-72
2020/12/02 05:23:24;;;;;;;15.63;12.05;;;10.90;71.60;;;;;;2084012;28;20032;-72
2020/12/02 05:24:25;;;;;;;19.73;11.77;;;10.90;71.80;;;;;;2084774;28;20025;-72